Time;durP1;ratioP1;P1;durP2;ratioP2;P2;SDS_P1;SDS_P2;PMS_P1;PMS_P2;Temp;Humidity;BMP_temperature;BMP_pressure;BME280_temperature;BME280_humidity;BME280_pressure;Samples;Min_cycle;Max_cycle;Signal;HPM_P1;HPM_P2
2023/03/19 00:01:32;;;;;;;86.90;38.47;;;;;;;;;;10456704;28;20524;-79
2023/03/19 00:06:34;;;;;;;73.07;30.70;;;;;;;;;;10455919;28;20074;-79
2023/03/19 00:11:35;;;;;;;79.57;33.47;;;;;;;;;;10448148;28;20063;-80
2023/03/19 00:16:36;;;;;;;78.53;33.73;;;;;;;;;;10428976;28;20496;-79
2023/03/19 00:21:37;;;;;;;64.73;28.67;;;;;;;;;;10447026;28;20071;-79
2023/03/19 00:26:38;;;;;;;64.07;28.87;;;;;;;;;;10459037;28;20102;-79
2023/03/19 00:31:40;;;;;;;54.73;24.53;;;;;;;;;;10449125;28;20087;-79
2023/03/19 00:36:41;;;;;;;57.83;23.97;;;;;;;;;;10467202;28;20029;-79
2023/03/19 00:41:49;;;;;;;60.07;26.67;;;;;;;;;;10449669;28;20040;-81
2023/03/19 00:46:50;;;;;;;87.10;36.60;;;;;;;;;;10441215;28;20047;-81
2023/03/19 00:51:51;;;;;;;74.30;34.67;;;;;;;;;;10470813;28;20056;-81
2023/03/19 00:56:52;;;;;;;67.63;30.40;;;;;;;;;;10475735;28;20123;-79
2023/03/19 01:01:53;;;;;;;60.27;26.90;;;;;;;;;;10461617;28;20041;-81
2023/03/19 01:06:54;;;;;;;59.90;27.33;;;;;;;;;;10444466;28;20442;-78
2023/03/19 01:11:55;;;;;;;56.77;24.53;;;;;;;;;;10473030;28;20057;-79
2023/03/19 01:16:57;;;;;;;61.77;27.23;;;;;;;;;;10447555;28;20574;-81
2023/03/19 01:21:58;;;;;;;62.27;28.97;;;;;;;;;;10429964;28;20044;-79
2023/03/19 01:26:59;;;;;;;55.77;24.97;;;;;;;;;;10441100;28;20033;-79
2023/03/19 01:32:00;;;;;;;56.70;24.23;;;;;;;;;;10448318;28;20537;-81
2023/03/19 01:37:01;;;;;;;57.10;23.50;;;;;;;;;;10481787;28;20089;-79
2023/03/19 01:42:03;;;;;;;61.30;25.20;;;;;;;;;;10470218;28;20047;-79
2023/03/19 01:47:06;;;;;;;52.00;22.73;;;;;;;;;;10455214;28;20044;-79
2023/03/19 01:52:08;;;;;;;49.33;23.23;;;;;;;;;;10460415;28;20064;-79
2023/03/19 01:57:12;;;;;;;49.90;21.43;;;;;;;;;;10450430;28;20029;-79
2023/03/19 02:02:21;;;;;;;54.50;24.87;;;;;;;;;;10454426;28;20033;-79
2023/03/19 02:07:22;;;;;;;47.50;22.57;;;;;;;;;;10462396;28;20043;-81
2023/03/19 02:12:23;;;;;;;50.13;21.67;;;;;;;;;;10443417;28;20687;-79
2023/03/19 02:17:24;;;;;;;45.03;21.80;;;;;;;;;;10446387;28;20036;-80
2023/03/19 02:22:27;;;;;;;46.87;21.90;;;;;;;;;;10446149;28;20033;-81
2023/03/19 02:27:28;;;;;;;50.27;24.17;;;;;;;;;;10450475;28;20439;-80
2023/03/19 02:32:29;;;;;;;51.90;22.07;;;;;;;;;;10444007;28;20068;-79
2023/03/19 02:37:31;;;;;;;53.80;22.90;;;;;;;;;;10459283;28;20058;-79
2023/03/19 02:42:32;;;;;;;40.60;20.10;;;;;;;;;;10448422;28;20750;-81
2023/03/19 02:47:33;;;;;;;54.57;22.27;;;;;;;;;;10460598;28;20040;-79
2023/03/19 02:52:34;;;;;;;53.57;23.17;;;;;;;;;;10437652;28;20039;-79
2023/03/19 02:57:35;;;;;;;55.87;25.70;;;;;;;;;;10457910;28;20039;-77
2023/03/19 03:02:37;;;;;;;61.13;25.47;;;;;;;;;;10448628;28;20044;-78
2023/03/19 03:07:39;;;;;;;55.93;25.47;;;;;;;;;;10476462;28;20040;-78
2023/03/19 03:12:40;;;;;;;67.70;29.53;;;;;;;;;;10474368;28;20131;-77
2023/03/19 03:17:44;;;;;;;64.53;28.87;;;;;;;;;;10457308;28;20131;-78
2023/03/19 03:22:45;;;;;;;67.47;31.13;;;;;;;;;;10442684;28;20421;-79
2023/03/19 03:27:46;;;;;;;69.13;27.90;;;;;;;;;;10453589;28;20057;-78
2023/03/19 03:32:47;;;;;;;67.47;30.83;;;;;;;;;;10432293;28;20613;-78
2023/03/19 03:37:49;;;;;;;69.07;31.87;;;;;;;;;;10466021;28;20028;-80
2023/03/19 03:42:50;;;;;;;69.47;31.43;;;;;;;;;;10457428;28;20033;-77
2023/03/19 03:47:51;;;;;;;64.33;29.73;;;;;;;;;;10440125;28;20439;-79
2023/03/19 03:52:52;;;;;;;69.37;29.97;;;;;;;;;;10410801;28;20033;-79
2023/03/19 03:57:53;;;;;;;60.33;29.50;;;;;;;;;;10404415;28;20029;-78
2023/03/19 04:02:54;;;;;;;62.07;28.73;;;;;;;;;;10424750;28;20032;-78
2023/03/19 04:07:56;;;;;;;67.80;30.60;;;;;;;;;;10439501;28;20120;-78
2023/03/19 04:12:57;;;;;;;68.37;30.77;;;;;;;;;;10443316;28;20492;-78
2023/03/19 04:17:58;;;;;;;66.60;30.03;;;;;;;;;;10404231;28;20056;-77
2023/03/19 04:22:59;;;;;;;70.47;31.77;;;;;;;;;;10404177;28;20564;-78
2023/03/19 04:28:00;;;;;;;63.50;29.90;;;;;;;;;;10404679;28;20065;-78
2023/03/19 04:33:03;;;;;;;63.57;29.23;;;;;;;;;;10419305;28;20040;-76
2023/03/19 04:38:04;;;;;;;58.17;27.03;;;;;;;;;;10435890;28;20025;-77
2023/03/19 04:43:06;;;;;;;61.00;27.93;;;;;;;;;;10443556;28;20400;-78
2023/03/19 04:48:07;;;;;;;63.00;30.23;;;;;;;;;;10404484;28;20025;-78
2023/03/19 04:53:08;;;;;;;58.20;27.40;;;;;;;;;;10428154;28;20040;-78
2023/03/19 04:58:10;;;;;;;87.47;51.93;;;;;;;;;;10430622;28;20116;-80
2023/03/19 05:03:11;;;;;;;94.37;55.73;;;;;;;;;;10427951;28;20115;-80
2023/03/19 05:08:12;;;;;;;70.77;32.43;;;;;;;;;;10402226;28;20033;-82
2023/03/19 05:13:13;;;;;;;77.83;34.90;;;;;;;;;;10430981;28;20731;-79
2023/03/19 05:18:15;;;;;;;72.43;34.20;;;;;;;;;;10445942;28;20029;-78
2023/03/19 05:23:16;;;;;;;68.07;30.73;;;;;;;;;;10445455;28;20369;-80
2023/03/19 05:28:17;;;;;;;63.50;31.30;;;;;;;;;;10451503;28;20067;-80
2023/03/19 05:33:18;;;;;;;61.73;30.80;;;;;;;;;;10471975;28;20024;-80
2023/03/19 05:38:19;;;;;;;68.67;30.37;;;;;;;;;;10451332;28;20492;-79
2023/03/19 05:43:21;;;;;;;53.53;25.93;;;;;;;;;;10443108;28;20504;-78
2023/03/19 05:48:22;;;;;;;54.93;25.80;;;;;;;;;;10476077;28;20459;-78
2023/03/19 05:53:23;;;;;;;53.90;26.13;;;;;;;;;;10462011;28;20059;-77
2023/03/19 05:58:24;;;;;;;49.40;24.27;;;;;;;;;;10443212;28;20107;-79
2023/03/19 06:03:25;;;;;;;47.70;24.27;;;;;;;;;;10474922;28;20025;-78
2023/03/19 06:08:27;;;;;;;48.17;24.07;;;;;;;;;;10447275;28;20029;-78
2023/03/19 06:13:27;;;;;;;51.50;21.83;;;;;;;;;;10460979;28;20069;-79
2023/03/19 06:18:29;;;;;;;41.60;22.47;;;;;;;;;;10458380;28;20021;-78
2023/03/19 06:23:30;;;;;;;42.20;23.60;;;;;;;;;;10471313;28;20046;-78
2023/03/19 06:28:31;;;;;;;68.73;29.93;;;;;;;;;;10470571;28;20025;-80
2023/03/19 06:33:32;;;;;;;64.07;32.60;;;;;;;;;;10480865;28;20060;-79
2023/03/19 06:38:34;;;;;;;67.57;32.60;;;;;;;;;;10466248;28;20039;-80
2023/03/19 06:43:36;;;;;;;62.37;30.17;;;;;;;;;;10463703;28;20029;-78
2023/03/19 06:48:37;;;;;;;51.07;25.03;;;;;;;;;;10460621;28;20056;-80
2023/03/19 06:53:38;;;;;;;51.00;24.80;;;;;;;;;;10450704;28;20052;-78
2023/03/19 06:58:39;;;;;;;38.97;21.13;;;;;;;;;;10433563;28;20591;-79
2023/03/19 07:03:40;;;;;;;40.07;20.17;;;;;;;;;;10451777;28;20039;-78
2023/03/19 07:08:45;;;;;;;38.63;21.37;;;;;;;;;;10434283;28;20040;-80
2023/03/19 07:13:46;;;;;;;40.27;19.20;;;;;;;;;;10433813;28;20052;-80
2023/03/19 07:18:47;;;;;;;43.20;20.90;;;;;;;;;;10464973;28;20042;-79
2023/03/19 07:23:49;;;;;;;36.37;18.80;;;;;;;;;;10435172;28;20029;-79
2023/03/19 07:28:50;;;;;;;66.70;31.17;;;;;;;;;;10429537;28;20104;-79
2023/03/19 07:33:51;;;;;;;33.53;18.23;;;;;;;;;;10444621;28;20057;-81
2023/03/19 07:38:54;;;;;;;33.10;17.23;;;;;;;;;;10445265;28;20048;-78
2023/03/19 07:43:55;;;;;;;34.97;18.93;;;;;;;;;;10440728;28;20404;-78
2023/03/19 07:48:56;;;;;;;36.73;18.50;;;;;;;;;;10462125;28;20048;-79
2023/03/19 07:53:57;;;;;;;44.17;20.27;;;;;;;;;;10442767;28;20041;-78
2023/03/19 07:58:59;;;;;;;36.90;18.40;;;;;;;;;;10442964;28;20498;-77
2023/03/19 08:04:00;;;;;;;32.77;17.20;;;;;;;;;;10434194;28;20072;-81
2023/03/19 08:09:01;;;;;;;33.27;16.27;;;;;;;;;;10441652;28;20102;-79
2023/03/19 08:14:03;;;;;;;29.40;17.10;;;;;;;;;;10476179;28;20056;-81
2023/03/19 08:19:04;;;;;;;24.50;13.27;;;;;;;;;;10474796;28;20131;-78
2023/03/19 08:24:05;;;;;;;21.23;12.63;;;;;;;;;;10445570;28;20038;-80
2023/03/19 08:29:07;;;;;;;30.05;13.77;;;;;;;;;;10441179;28;20025;-79
2023/03/19 08:34:09;;;;;;;28.00;15.25;;;;;;;;;;10430547;28;20028;-79
2023/03/19 08:39:10;;;;;;;38.03;17.77;;;;;;;;;;10460648;28;20032;-79
2023/03/19 08:44:11;;;;;;;24.77;13.57;;;;;;;;;;10468516;28;20054;-81
2023/03/19 08:49:12;;;;;;;23.05;12.88;;;;;;;;;;10444455;28;20041;-78
2023/03/19 08:54:14;;;;;;;28.63;14.98;;;;;;;;;;10440851;28;20520;-78
2023/03/19 08:59:16;;;;;;;22.73;14.00;;;;;;;;;;10449533;28;20150;-78
2023/03/19 09:04:17;;;;;;;23.75;13.15;;;;;;;;;;10465950;28;20033;-80
2023/03/19 09:09:19;;;;;;;22.90;16.13;;;;;;;;;;10461614;28;20067;-81
2023/03/19 09:14:21;;;;;;;12.65;8.15;;;;;;;;;;10457187;28;20095;-79
2023/03/19 09:19:22;;;;;;;14.07;8.68;;;;;;;;;;10440800;28;20493;-79
2023/03/19 09:24:23;;;;;;;36.13;31.58;;;;;;;;;;10431645;28;20034;-79
2023/03/19 09:29:24;;;;;;;33.80;23.58;;;;;;;;;;10462131;28;20029;-82
2023/03/19 09:34:26;;;;;;;53.05;47.33;;;;;;;;;;10436452;28;20033;-80
2023/03/19 09:39:27;;;;;;;13.30;9.57;;;;;;;;;;10444453;28;20079;-80
2023/03/19 09:44:34;;;;;;;13.70;8.15;;;;;;;;;;10467901;28;20044;-80
2023/03/19 09:49:41;;;;;;;10.45;6.00;;;;;;;;;;10447365;28;20064;-82
2023/03/19 09:54:45;;;;;;;11.15;6.85;;;;;;;;;;10451406;28;20036;-80
2023/03/19 10:04:57;;;;;;;10.48;6.35;;;;;;;;;;10366613;28;20203;-80
2023/03/19 10:09:58;;;;;;;14.20;7.53;;;;;;;;;;10365038;28;20121;-79
2023/03/19 10:14:59;;;;;;;12.25;8.05;;;;;;;;;;10365053;28;20026;-80
2023/03/19 10:20:06;;;;;;;11.40;7.90;;;;;;;;;;10365816;28;20475;-81
2023/03/19 10:25:12;;;;;;;17.10;9.98;;;;;;;;;;10366165;28;20038;-79
2023/03/19 10:30:13;;;;;;;;;;;;;;;;;;10365694;28;20033;-81
2023/03/19 10:35:27;;;;;;;14.52;8.40;;;;;;;;;;10352190;28;19909;-80
2023/03/19 10:40:33;;;;;;;15.00;9.05;;;;;;;;;;10364814;28;20022;-79
2023/03/19 10:45:35;;;;;;;12.95;8.30;;;;;;;;;;10365153;28;20399;-81
2023/03/19 10:50:42;;;;;;;15.52;9.70;;;;;;;;;;10364715;28;20113;-79
2023/03/19 10:55:50;;;;;;;14.77;8.80;;;;;;;;;;10364335;28;20033;-80
2023/03/19 11:01:02;;;;;;;14.52;8.77;;;;;;;;;;10364133;28;20064;-80
2023/03/19 11:06:06;;;;;;;14.23;8.82;;;;;;;;;;10379110;28;20037;-81
2023/03/19 11:11:22;;;;;;;30.42;17.15;;;;;;;;;;10363575;28;20112;-79
2023/03/19 11:16:23;;;;;;;14.23;9.35;;;;;;;;;;10362850;28;20036;-79
2023/03/19 11:21:28;;;;;;;30.58;19.52;;;;;;;;;;10363765;28;20517;-81
2023/03/19 11:26:29;;;;;;;54.38;26.98;;;;;;;;;;10363960;28;20034;-79
2023/03/19 11:31:36;;;;;;;44.20;22.25;;;;;;;;;;10363427;28;20026;-80
2023/03/19 11:36:40;;;;;;;19.40;9.98;;;;;;;;;;10378574;28;20096;-81
2023/03/19 11:41:41;;;;;;;42.33;20.52;;;;;;;;;;10362685;28;20037;-79
2023/03/19 11:52:28;;;;;;;19.55;11.48;;;;;;;;;;10349986;28;20053;-80
2023/03/19 11:57:32;;;;;;;13.57;7.65;;;;;;;;;;10358807;28;20037;-79
2023/03/19 12:02:52;;;;;;;108.38;41.08;;;;;;;;;;10362570;28;20088;-79
2023/03/19 12:07:56;;;;;;;109.63;40.97;;;;;;;;;;10351270;28;20034;-79
2023/03/19 12:12:57;;;;;;;41.65;18.70;;;;;;;;;;10341653;28;20050;-81
2023/03/19 12:18:08;;;;;;;21.80;11.25;;;;;;;;;;10359718;28;20545;-81
2023/03/19 12:23:09;;;;;;;11.48;7.13;;;;;;;;;;10350086;28;20430;-79
2023/03/19 12:28:30;;;;;;;10.68;7.25;;;;;;;;;;10372733;28;20111;-80
2023/03/19 12:33:50;;;;;;;25.80;13.10;;;;;;;;;;10360356;28;20471;-80
2023/03/19 12:38:59;;;;;;;13.18;7.20;;;;;;;;;;10368438;28;20695;-81
2023/03/19 12:44:18;;;;;;;13.63;6.90;;;;;;;;;;10390543;28;20033;-81
2023/03/19 12:49:29;;;;;;;12.50;7.15;;;;;;;;;;10374905;28;20033;-79
2023/03/19 12:54:34;;;;;;;10.40;6.55;;;;;;;;;;10374472;28;20018;-79
2023/03/19 12:59:55;;;;;;;14.73;8.18;;;;;;;;;;10374317;28;20474;-80
2023/03/19 13:05:00;;;;;;;14.73;8.80;;;;;;;;;;10374167;28;20058;-81
2023/03/19 13:10:05;;;;;;;9.97;6.63;;;;;;;;;;10374042;28;20057;-80
2023/03/19 13:15:09;;;;;;;10.48;6.50;;;;;;;;;;10374441;28;20060;-79
2023/03/19 13:20:19;;;;;;;11.75;7.45;;;;;;;;;;10374260;28;20029;-80
2023/03/19 13:25:22;;;;;;;13.60;8.27;;;;;;;;;;10374049;28;20500;-80
2023/03/19 13:30:25;;;;;;;16.90;9.27;;;;;;;;;;10373684;28;20100;-80
2023/03/19 13:35:38;;;;;;;11.48;7.28;;;;;;;;;;10374246;28;20028;-80
2023/03/19 13:40:39;;;;;;;11.82;6.97;;;;;;;;;;10366923;28;20026;-79
2023/03/19 13:45:40;;;;;;;10.70;6.40;;;;;;;;;;10367344;28;20084;-79
2023/03/19 13:50:54;;;;;;;59.25;29.10;;;;;;;;;;10367334;28;20041;-81
2023/03/19 13:55:59;;;;;;;13.23;7.78;;;;;;;;;;10366743;28;20552;-80
2023/03/19 14:01:00;;;;;;;29.73;14.30;;;;;;;;;;10366784;28;20060;-80
2023/03/19 14:06:01;;;;;;;15.02;7.72;;;;;;;;;;10365815;28;20080;-79
2023/03/19 14:11:04;;;;;;;16.08;7.97;;;;;;;;;;10366337;28;20523;-79
2023/03/19 14:16:25;;;;;;;27.17;13.40;;;;;;;;;;10366481;28;20121;-79
2023/03/19 14:21:39;;;;;;;17.40;8.68;;;;;;;;;;10365654;28;20390;-80
2023/03/19 14:26:42;;;;;;;15.90;8.60;;;;;;;;;;10365280;28;20042;-78
2023/03/19 14:31:48;;;;;;;14.05;8.63;;;;;;;;;;10365226;28;20088;-79
2023/03/19 14:37:09;;;;;;;18.42;9.15;;;;;;;;;;10380337;28;20104;-81
2023/03/19 14:42:22;;;;;;;22.42;12.75;;;;;;;;;;10350233;28;20037;-79
2023/03/19 14:47:26;;;;;;;17.88;10.60;;;;;;;;;;10364637;28;20030;-79
2023/03/19 14:52:39;;;;;;;16.63;8.90;;;;;;;;;;10363647;28;20065;-81
2023/03/19 14:57:42;;;;;;;13.55;8.38;;;;;;;;;;10363817;28;20022;-79
2023/03/19 15:02:48;;;;;;;23.20;12.68;;;;;;;;;;10364063;28;20156;-79
2023/03/19 15:07:52;;;;;;;12.20;8.20;;;;;;;;;;10363949;28;20045;-79
2023/03/19 15:13:01;;;;;;;15.60;9.40;;;;;;;;;;10363427;28;20034;-80
2023/03/19 15:18:10;;;;;;;25.08;12.25;;;;;;;;;;10363528;28;20829;-80
2023/03/19 15:23:12;;;;;;;19.70;10.40;;;;;;;;;;10363416;28;20037;-79
2023/03/19 15:28:15;;;;;;;23.25;13.85;;;;;;;;;;10363473;28;20030;-79
2023/03/19 15:33:25;;;;;;;30.75;18.05;;;;;;;;;;10363110;28;20105;-79
2023/03/19 15:38:28;;;;;;;31.83;16.75;;;;;;;;;;10362893;28;20021;-79
2023/03/19 15:43:29;;;;;;;43.58;23.38;;;;;;;;;;10362164;28;20095;-81
2023/03/19 15:48:37;;;;;;;36.03;18.70;;;;;;;;;;10362824;28;20381;-79
2023/03/19 15:53:39;;;;;;;53.17;26.67;;;;;;;;;;10362060;28;20631;-79
2023/03/19 15:58:42;;;;;;;39.17;21.55;;;;;;;;;;10361961;28;20032;-79
2023/03/19 16:03:44;;;;;;;41.50;23.77;;;;;;;;;;10361223;28;20120;-79
2023/03/19 16:08:47;;;;;;;45.13;21.73;;;;;;;;;;10361642;28;20393;-81
2023/03/19 16:13:56;;;;;;;28.25;14.05;;;;;;;;;;10362247;28;20033;-79
2023/03/19 16:18:58;;;;;;;17.80;10.00;;;;;;;;;;10362643;28;20025;-79
2023/03/19 16:24:00;;;;;;;18.33;9.43;;;;;;;;;;10361789;28;20061;-80
2023/03/19 16:29:19;;;;;;;20.02;10.95;;;;;;;;;;10361768;28;20030;-79
2023/03/19 16:34:34;;;;;;;21.98;13.20;;;;;;;;;;10349841;28;20022;-79
2023/03/19 16:39:36;;;;;;;21.83;12.25;;;;;;;;;;10356070;28;20031;-81
2023/03/19 16:44:42;;;;;;;22.98;12.18;;;;;;;;;;10354540;28;20049;-80
2023/03/19 16:49:43;;;;;;;27.98;14.40;;;;;;;;;;10361519;28;20050;-79
2023/03/19 16:54:44;;;;;;;50.47;25.30;;;;;;;;;;10371184;28;20037;-79
2023/03/19 16:59:47;;;;;;;70.90;32.60;;;;;;;;;;10363790;28;20034;-79
2023/03/19 17:04:48;;;;;;;31.85;17.42;;;;;;;;;;10385767;28;20401;-80
2023/03/19 17:09:49;;;;;;;23.25;12.52;;;;;;;;;;10335657;28;20056;-79
2023/03/19 17:14:51;;;;;;;25.52;14.15;;;;;;;;;;10368859;28;20025;-80
2023/03/19 17:19:52;;;;;;;20.70;10.73;;;;;;;;;;10351261;28;20472;-78
2023/03/19 17:24:55;;;;;;;20.63;10.90;;;;;;;;;;10368980;28;20048;-81
2023/03/19 17:29:56;;;;;;;25.35;13.00;;;;;;;;;;10362111;28;20080;-78
2023/03/19 17:34:57;;;;;;;21.30;11.00;;;;;;;;;;10350048;28;20381;-80
2023/03/19 17:39:58;;;;;;;20.77;11.55;;;;;;;;;;10370048;28;20076;-78
2023/03/19 17:44:59;;;;;;;23.80;12.80;;;;;;;;;;10365402;28;20050;-78
2023/03/19 17:50:00;;;;;;;21.90;11.30;;;;;;;;;;10366473;28;20042;-78
2023/03/19 17:55:02;;;;;;;25.37;13.53;;;;;;;;;;10355808;28;20508;-78
2023/03/19 18:00:03;;;;;;;58.28;24.33;;;;;;;;;;10361717;28;20041;-78
2023/03/19 18:05:06;;;;;;;45.37;20.97;;;;;;;;;;10352906;28;20048;-78
2023/03/19 18:10:07;;;;;;;40.77;21.10;;;;;;;;;;10357160;28;20373;-78
2023/03/19 18:15:08;;;;;;;35.30;18.20;;;;;;;;;;10378666;28;20030;-78
2023/03/19 18:20:14;;;;;;;91.10;41.43;;;;;;;;;;10365017;28;20037;-77
2023/03/19 18:25:25;;;;;;;137.52;56.25;;;;;;;;;;10352180;28;20037;-77
2023/03/19 18:30:28;;;;;;;94.67;40.30;;;;;;;;;;10368549;28;20081;-78
2023/03/19 18:35:34;;;;;;;90.37;42.53;;;;;;;;;;10364552;28;20096;-78
2023/03/19 18:40:35;;;;;;;;;;;;;;;;;;10368411;28;20489;-79
2023/03/19 18:45:37;;;;;;;105.50;51.90;;;;;;;;;;10358607;28;19929;-78
2023/03/19 18:50:38;;;;;;;106.73;53.83;;;;;;;;;;10366235;28;20030;-79
2023/03/19 18:55:39;;;;;;;105.87;52.53;;;;;;;;;;10364786;28;20477;-79
2023/03/19 19:00:40;;;;;;;102.07;56.13;;;;;;;;;;10352470;28;20050;-79
2023/03/19 19:05:42;;;;;;;110.70;55.97;;;;;;;;;;10356203;28;20539;-78
2023/03/19 19:10:46;;;;;;;120.63;64.00;;;;;;;;;;10365260;28;20030;-78
2023/03/19 19:15:47;;;;;;;136.07;74.23;;;;;;;;;;10359998;28;20042;-78
2023/03/19 19:20:50;;;;;;;127.43;67.73;;;;;;;;;;10359986;28;20104;-78
2023/03/19 19:25:51;;;;;;;126.20;68.77;;;;;;;;;;10366924;28;20073;-79
2023/03/19 19:30:53;;;;;;;123.23;63.60;;;;;;;;;;10344554;28;20809;-78
2023/03/19 19:35:55;;;;;;;122.27;63.07;;;;;;;;;;10359910;28;20120;-78
2023/03/19 19:40:58;;;;;;;148.90;76.67;;;;;;;;;;10346315;28;20389;-78
2023/03/19 19:46:00;;;;;;;137.17;69.70;;;;;;;;;;10349656;28;20044;-79
2023/03/19 19:51:01;;;;;;;113.83;57.90;;;;;;;;;;10363297;28;20065;-79
2023/03/19 19:56:21;;;;;;;107.00;54.33;;;;;;;;;;10358847;28;20022;-80
2023/03/19 20:01:23;;;;;;;109.50;56.87;;;;;;;;;;10343299;28;20447;-79
2023/03/19 20:06:24;;;;;;;109.87;56.00;;;;;;;;;;10352489;28;20030;-79
2023/03/19 20:11:26;;;;;;;142.27;77.73;;;;;;;;;;10353830;28;20505;-79
2023/03/19 20:16:27;;;;;;;176.30;84.13;;;;;;;;;;10351699;28;20038;-79
2023/03/19 20:21:28;;;;;;;169.50;86.13;;;;;;;;;;10353003;28;20029;-80
2023/03/19 20:26:29;;;;;;;124.03;63.13;;;;;;;;;;10377912;28;20044;-79
2023/03/19 20:31:31;;;;;;;111.90;55.00;;;;;;;;;;10353916;28;20022;-80
2023/03/19 20:36:32;;;;;;;97.70;50.90;;;;;;;;;;10352031;28;20026;-80
2023/03/19 20:41:33;;;;;;;99.07;49.37;;;;;;;;;;10364414;28;20403;-79
2023/03/19 20:46:35;;;;;;;98.90;48.13;;;;;;;;;;10361452;28;20061;-80
2023/03/19 20:51:36;;;;;;;97.43;46.47;;;;;;;;;;10364564;28;20097;-79
2023/03/19 20:56:37;;;;;;;102.10;51.33;;;;;;;;;;10357830;28;20034;-80
2023/03/19 21:01:38;;;;;;;97.93;48.03;;;;;;;;;;10354943;28;20050;-80
2023/03/19 21:06:40;;;;;;;91.70;46.87;;;;;;;;;;10368573;28;20030;-80
2023/03/19 21:11:41;;;;;;;92.07;47.27;;;;;;;;;;10371971;28;20030;-81
2023/03/19 21:16:42;;;;;;;86.43;45.63;;;;;;;;;;10363636;28;20030;-80
2023/03/19 21:21:43;;;;;;;104.53;51.17;;;;;;;;;;10361538;28;20803;-80
2023/03/19 21:26:45;;;;;;;99.43;49.33;;;;;;;;;;10362337;28;20486;-79
2023/03/19 21:31:46;;;;;;;92.13;46.87;;;;;;;;;;10354127;28;20084;-80
2023/03/19 21:36:47;;;;;;;77.97;41.03;;;;;;;;;;10360699;28;20059;-81
2023/03/19 21:41:48;;;;;;;93.97;46.47;;;;;;;;;;10370141;28;20075;-80
2023/03/19 21:46:50;;;;;;;93.20;49.20;;;;;;;;;;10379142;28;20049;-79
2023/03/19 21:51:51;;;;;;;116.57;58.53;;;;;;;;;;10366796;28;20049;-79
2023/03/19 21:56:52;;;;;;;126.97;62.83;;;;;;;;;;10367693;28;20562;-79
2023/03/19 22:01:53;;;;;;;122.83;65.77;;;;;;;;;;10375502;28;20049;-80
2023/03/19 22:06:55;;;;;;;113.77;58.70;;;;;;;;;;10376072;28;20049;-80
2023/03/19 22:11:56;;;;;;;117.37;63.90;;;;;;;;;;10381613;28;20048;-79
2023/03/19 22:16:57;;;;;;;118.10;63.10;;;;;;;;;;10364915;28;20067;-80
2023/03/19 22:21:58;;;;;;;131.07;65.13;;;;;;;;;;10365587;28;20036;-79
2023/03/19 22:26:59;;;;;;;109.73;59.27;;;;;;;;;;10369892;28;20195;-79
2023/03/19 22:32:01;;;;;;;129.10;62.53;;;;;;;;;;10370656;28;20030;-80
2023/03/19 22:37:10;;;;;;;121.67;59.43;;;;;;;;;;10367664;28;20038;-80
2023/03/19 22:42:11;;;;;;;125.20;60.47;;;;;;;;;;10370456;28;20045;-79
2023/03/19 22:47:21;;;;;;;133.77;63.70;;;;;;;;;;10394455;23;20131;-79
2023/03/19 22:52:22;;;;;;;125.93;59.47;;;;;;;;;;10474815;28;20117;-79
2023/03/19 22:57:23;;;;;;;134.20;60.87;;;;;;;;;;10465740;28;20087;-79
2023/03/19 23:02:24;;;;;;;98.60;48.07;;;;;;;;;;10448001;28;20164;-80
2023/03/19 23:07:25;;;;;;;77.87;37.87;;;;;;;;;;10452994;28;20047;-79
2023/03/19 23:12:26;;;;;;;76.57;37.57;;;;;;;;;;10465920;28;20090;-80
2023/03/19 23:17:27;;;;;;;82.27;38.70;;;;;;;;;;10474884;28;20040;-80
2023/03/19 23:22:28;;;;;;;90.20;42.10;;;;;;;;;;10487042;28;20032;-80
2023/03/19 23:27:29;;;;;;;99.10;47.77;;;;;;;;;;10469722;28;20040;-79
2023/03/19 23:32:30;;;;;;;103.30;47.77;;;;;;;;;;10452880;28;20028;-80
2023/03/19 23:37:33;;;;;;;101.13;48.77;;;;;;;;;;10472784;28;20119;-79
2023/03/19 23:42:35;;;;;;;102.23;49.33;;;;;;;;;;10459402;28;20443;-81
2023/03/19 23:47:36;;;;;;;117.73;53.50;;;;;;;;;;10457395;28;20488;-80
2023/03/19 23:52:37;;;;;;;96.73;49.77;;;;;;;;;;10485560;28;20026;-81
2023/03/19 23:58:15;;;;;;;91.30;45.73;;;;;;;;;;10451594;28;20033;-79
